sensor_id;sensor_type;location;lat;lon;timestamp;pressure;altitude;pressure_sealevel;temperature;humidity
5574;BME280;2563;52.242;7.956;2023-02-21T00:02:13;101069.63;;;8.36;100.00
5574;BME280;2563;52.242;7.956;2023-02-21T00:04:57;101055.06;;;8.36;100.00
5574;BME280;2563;52.242;7.956;2023-02-21T00:07:41;101067.91;;;8.36;100.00
5574;BME280;2563;52.242;7.956;2023-02-21T00:10:25;101055.91;;;8.37;100.00
5574;BME280;2563;52.242;7.956;2023-02-21T00:13:09;101043.09;;;8.38;100.00
5574;BME280;2563;52.242;7.956;2023-02-21T00:15:53;101039.66;;;8.38;100.00
5574;BME280;2563;52.242;7.956;2023-02-21T00:18:37;101040.53;;;8.37;100.00
5574;BME280;2563;52.242;7.956;2023-02-21T00:21:22;101036.25;;;8.39;100.00
5574;BME280;2563;52.242;7.956;2023-02-21T00:24:07;101033.69;;;8.37;100.00
5574;BME280;2563;52.242;7.956;2023-02-21T00:26:51;101037.97;;;8.40;100.00
5574;BME280;2563;52.242;7.956;2023-02-21T00:29:35;101023.41;;;8.39;100.00
5574;BME280;2563;52.242;7.956;2023-02-21T00:32:19;101036.25;;;8.40;100.00
5574;BME280;2563;52.242;7.956;2023-02-21T00:35:03;101043.94;;;8.42;100.00
5574;BME280;2563;52.242;7.956;2023-02-21T00:37:50;101043.09;;;8.43;100.00
5574;BME280;2563;52.242;7.956;2023-02-21T00:40:34;101042.22;;;8.44;100.00
5574;BME280;2563;52.242;7.956;2023-02-21T00:43:18;101043.91;;;8.45;100.00
5574;BME280;2563;52.242;7.956;2023-02-21T00:46:03;101049.03;;;8.45;100.00
5574;BME280;2563;52.242;7.956;2023-02-21T00:48:47;101043.06;;;8.44;100.00
5574;BME280;2563;52.242;7.956;2023-02-21T00:51:31;101038.81;;;8.40;100.00
5574;BME280;2563;52.242;7.956;2023-02-21T00:54:15;101042.25;;;8.41;100.00
5574;BME280;2563;52.242;7.956;2023-02-21T00:56:59;101044.81;;;8.41;100.00
5574;BME280;2563;52.242;7.956;2023-02-21T00:59:43;101043.09;;;8.43;100.00
5574;BME280;2563;52.242;7.956;2023-02-21T01:02:27;101031.97;;;8.44;100.00
5574;BME280;2563;52.242;7.956;2023-02-21T01:05:11;101034.50;;;8.48;100.00
5574;BME280;2563;52.242;7.956;2023-02-21T01:07:55;101033.66;;;8.46;100.00
5574;BME280;2563;52.242;7.956;2023-02-21T01:10:39;101031.94;;;8.47;100.00
5574;BME280;2563;52.242;7.956;2023-02-21T01:13:24;101029.38;;;8.47;100.00
5574;BME280;2563;52.242;7.956;2023-02-21T01:16:07;101036.22;;;8.46;100.00
5574;BME280;2563;52.242;7.956;2023-02-21T01:18:52;101036.22;;;8.46;100.00
5574;BME280;2563;52.242;7.956;2023-02-21T01:21:35;101037.91;;;8.47;100.00
5574;BME280;2563;52.242;7.956;2023-02-21T01:24:19;101043.91;;;8.48;100.00
5574;BME280;2563;52.242;7.956;2023-02-21T01:27:03;101042.19;;;8.47;100.00
5574;BME280;2563;52.242;7.956;2023-02-21T01:29:47;101046.44;;;8.49;100.00
5574;BME280;2563;52.242;7.956;2023-02-21T01:32:31;101035.34;;;8.49;100.00
5574;BME280;2563;52.242;7.956;2023-02-21T01:35:15;101040.47;;;8.49;100.00
5574;BME280;2563;52.242;7.956;2023-02-21T01:37:59;101045.59;;;8.49;100.00
5574;BME280;2563;52.242;7.956;2023-02-21T01:40:43;101043.91;;;8.48;100.00
5574;BME280;2563;52.242;7.956;2023-02-21T01:43:27;101042.19;;;8.50;100.00
5574;BME280;2563;52.242;7.956;2023-02-21T01:46:16;101043.03;;;8.49;100.00
5574;BME280;2563;52.242;7.956;2023-02-21T01:49:04;101035.34;;;8.49;100.00
5574;BME280;2563;52.242;7.956;2023-02-21T01:51:49;101035.34;;;8.47;100.00
5574;BME280;2563;52.242;7.956;2023-02-21T01:54:48;101037.91;;;8.50;100.00
5574;BME280;2563;52.242;7.956;2023-02-21T01:57:34;101031.94;;;8.50;100.00
5574;BME280;2563;52.242;7.956;2023-02-21T02:00:18;101033.66;;;8.48;100.00
5574;BME280;2563;52.242;7.956;2023-02-21T02:03:05;101032.78;;;8.47;100.00
5574;BME280;2563;52.242;7.956;2023-02-21T02:05:59;101032.78;;;8.47;100.00
5574;BME280;2563;52.242;7.956;2023-02-21T02:08:44;101041.34;;;8.48;100.00
5574;BME280;2563;52.242;7.956;2023-02-21T02:20:44;101035.34;;;8.50;100.00
5574;BME280;2563;52.242;7.956;2023-02-21T02:23:08;101037.91;;;8.50;100.00
5574;BME280;2563;52.242;7.956;2023-02-21T02:25:55;101043.03;;;8.50;100.00
5574;BME280;2563;52.242;7.956;2023-02-21T02:36:41;101041.31;;;8.51;100.00
5574;BME280;2563;52.242;7.956;2023-02-21T02:45:05;101042.19;;;8.50;100.00
5574;BME280;2563;52.242;7.956;2023-02-21T02:47:36;101039.63;;;8.50;100.00
5574;BME280;2563;52.242;7.956;2023-02-21T02:50:05;101054.13;;;8.51;100.00
5574;BME280;2563;52.242;7.956;2023-02-21T02:52:34;101049.00;;;8.51;100.00
5574;BME280;2563;52.242;7.956;2023-02-21T02:55:03;101039.63;;;8.50;100.00
5574;BME280;2563;52.242;7.956;2023-02-21T02:57:30;101045.59;;;8.49;100.00
5574;BME280;2563;52.242;7.956;2023-02-21T03:00:03;101048.16;;;8.50;100.00
5574;BME280;2563;52.242;7.956;2023-02-21T03:02:40;101051.56;;;8.52;100.00
5574;BME280;2563;52.242;7.956;2023-02-21T03:11:13;101056.72;;;8.52;100.00
5574;BME280;2563;52.242;7.956;2023-02-21T03:13:45;101054.09;;;8.54;100.00
5574;BME280;2563;52.242;7.956;2023-02-21T03:16:24;101057.56;;;8.53;100.00
5574;BME280;2563;52.242;7.956;2023-02-21T03:19:00;101057.56;;;8.53;100.00
5574;BME280;2563;52.242;7.956;2023-02-21T03:21:31;101072.94;;;8.53;100.00
5574;BME280;2563;52.242;7.956;2023-02-21T03:24:00;101068.69;;;8.50;100.00
5574;BME280;2563;52.242;7.956;2023-02-21T03:26:30;101066.97;;;8.52;100.00
5574;BME280;2563;52.242;7.956;2023-02-21T03:28:57;101072.06;;;8.54;100.00
5574;BME280;2563;52.242;7.956;2023-02-21T03:31:27;101069.50;;;8.54;100.00
5574;BME280;2563;52.242;7.956;2023-02-21T03:33:54;101060.13;;;8.53;100.00
5574;BME280;2563;52.242;7.956;2023-02-21T03:36:20;101059.25;;;8.54;100.00
5574;BME280;2563;52.242;7.956;2023-02-21T03:38:45;101064.38;;;8.54;100.00
5574;BME280;2563;52.242;7.956;2023-02-21T03:41:11;101073.78;;;8.54;100.00
5574;BME280;2563;52.242;7.956;2023-02-21T03:43:37;101077.19;;;8.54;100.00
5574;BME280;2563;52.242;7.956;2023-02-21T03:46:03;101071.22;;;8.55;100.00
5574;BME280;2563;52.242;7.956;2023-02-21T03:48:28;101090.88;;;8.55;100.00
5574;BME280;2563;52.242;7.956;2023-02-21T03:50:54;101077.22;;;8.52;100.00
5574;BME280;2563;52.242;7.956;2023-02-21T03:53:19;101084.06;;;8.54;100.00
5574;BME280;2563;52.242;7.956;2023-02-21T03:55:44;101086.63;;;8.54;100.00
5574;BME280;2563;52.242;7.956;2023-02-21T03:58:10;101090.06;;;8.52;100.00
5574;BME280;2563;52.242;7.956;2023-02-21T04:00:35;101101.16;;;8.53;100.00
5574;BME280;2563;52.242;7.956;2023-02-21T04:03:00;101097.75;;;8.52;100.00
5574;BME280;2563;52.242;7.956;2023-02-21T04:05:26;101090.06;;;8.51;100.00
5574;BME280;2563;52.242;7.956;2023-02-21T04:07:51;101090.94;;;8.50;100.00
5574;BME280;2563;52.242;7.956;2023-02-21T04:10:16;101091.78;;;8.49;100.00
5574;BME280;2563;52.242;7.956;2023-02-21T04:12:42;101092.66;;;8.48;100.00
5574;BME280;2563;52.242;7.956;2023-02-21T04:15:07;101103.75;;;8.48;100.00
5574;BME280;2563;52.242;7.956;2023-02-21T04:17:33;101100.31;;;8.49;100.00
5574;BME280;2563;52.242;7.956;2023-02-21T04:19:58;101096.06;;;8.50;100.00
5574;BME280;2563;52.242;7.956;2023-02-21T04:22:23;101107.19;;;8.49;100.00
5574;BME280;2563;52.242;7.956;2023-02-21T04:24:49;101102.03;;;8.49;100.00
5574;BME280;2563;52.242;7.956;2023-02-21T04:27:14;101100.34;;;8.48;100.00
5574;BME280;2563;52.242;7.956;2023-02-21T04:29:40;101105.47;;;8.48;100.00
5574;BME280;2563;52.242;7.956;2023-02-21T04:32:05;101101.19;;;8.48;100.00
5574;BME280;2563;52.242;7.956;2023-02-21T04:34:30;101104.59;;;8.47;100.00
5574;BME280;2563;52.242;7.956;2023-02-21T04:36:56;101111.47;;;8.48;100.00
5574;BME280;2563;52.242;7.956;2023-02-21T04:39:21;101103.75;;;8.47;100.00
5574;BME280;2563;52.242;7.956;2023-02-21T04:41:46;101110.63;;;8.48;100.00
5574;BME280;2563;52.242;7.956;2023-02-21T04:44:12;101105.47;;;8.48;100.00
5574;BME280;2563;52.242;7.956;2023-02-21T04:46:37;101104.59;;;8.50;100.00
5574;BME280;2563;52.242;7.956;2023-02-21T04:49:03;101100.31;;;8.51;100.00
5574;BME280;2563;52.242;7.956;2023-02-21T04:51:28;101093.50;;;8.50;100.00
5574;BME280;2563;52.242;7.956;2023-02-21T04:53:54;101088.38;;;8.50;100.00
5574;BME280;2563;52.242;7.956;2023-02-21T04:56:22;101091.78;;;8.49;100.00
5574;BME280;2563;52.242;7.956;2023-02-21T04:58:48;101094.34;;;8.49;100.00
5574;BME280;2563;52.242;7.956;2023-02-21T05:01:16;101090.09;;;8.48;100.00
5574;BME280;2563;52.242;7.956;2023-02-21T05:03:41;101089.22;;;8.47;100.00
5574;BME280;2563;52.242;7.956;2023-02-21T05:06:07;101083.22;;;8.47;100.00
5574;BME280;2563;52.242;7.956;2023-02-21T05:08:32;101086.69;;;8.46;100.00
5574;BME280;2563;52.242;7.956;2023-02-21T05:10:59;101086.69;;;8.46;100.00
5574;BME280;2563;52.242;7.956;2023-02-21T05:13:24;101087.53;;;8.45;100.00
5574;BME280;2563;52.242;7.956;2023-02-21T05:15:50;101079.81;;;8.45;100.00
5574;BME280;2563;52.242;7.956;2023-02-21T05:18:16;101082.41;;;8.45;100.00
5574;BME280;2563;52.242;7.956;2023-02-21T05:20:49;101066.19;;;8.43;100.00
5574;BME280;2563;52.242;7.956;2023-02-21T05:23:16;101076.44;;;8.43;100.00
5574;BME280;2563;52.242;7.956;2023-02-21T05:25:43;101074.72;;;8.42;100.00
5574;BME280;2563;52.242;7.956;2023-02-21T05:28:08;101074.72;;;8.42;100.00
5574;BME280;2563;52.242;7.956;2023-02-21T05:30:33;101072.16;;;8.42;100.00
5574;BME280;2563;52.242;7.956;2023-02-21T05:32:59;101072.16;;;8.40;100.00
5574;BME280;2563;52.242;7.956;2023-02-21T05:35:25;101071.31;;;8.38;100.00
5574;BME280;2563;52.242;7.956;2023-02-21T05:37:50;101070.44;;;8.38;100.00
5574;BME280;2563;52.242;7.956;2023-02-21T05:40:16;101073.00;;;8.38;100.00
5574;BME280;2563;52.242;7.956;2023-02-21T05:42:42;101071.31;;;8.37;100.00
5574;BME280;2563;52.242;7.956;2023-02-21T05:45:08;101074.72;;;8.37;100.00
5574;BME280;2563;52.242;7.956;2023-02-21T05:47:33;101078.16;;;8.36;100.00
5574;BME280;2563;52.242;7.956;2023-02-21T05:49:59;101082.44;;;8.36;100.00
5574;BME280;2563;52.242;7.956;2023-02-21T05:52:25;101089.25;;;8.37;100.00
5574;BME280;2563;52.242;7.956;2023-02-21T05:54:50;101085.00;;;8.36;100.00
5574;BME280;2563;52.242;7.956;2023-02-21T05:57:17;101088.41;;;8.35;100.00
5574;BME280;2563;52.242;7.956;2023-02-21T05:59:42;101080.72;;;8.33;100.00
5574;BME280;2563;52.242;7.956;2023-02-21T06:02:08;101079.88;;;8.32;100.00
5574;BME280;2563;52.242;7.956;2023-02-21T06:04:33;101080.75;;;8.31;100.00
5574;BME280;2563;52.242;7.956;2023-02-21T06:06:58;101076.47;;;8.30;100.00
5574;BME280;2563;52.242;7.956;2023-02-21T06:09:24;101078.19;;;8.31;100.00
5574;BME280;2563;52.242;7.956;2023-02-21T06:11:49;101094.41;;;8.30;100.00
5574;BME280;2563;52.242;7.956;2023-02-21T06:14:19;101089.31;;;8.29;100.00
5574;BME280;2563;52.242;7.956;2023-02-21T06:16:45;101091.03;;;8.28;100.00
5574;BME280;2563;52.242;7.956;2023-02-21T06:19:12;101085.91;;;8.27;100.00
5574;BME280;2563;52.242;7.956;2023-02-21T06:21:38;101085.91;;;8.27;100.00
5574;BME280;2563;52.242;7.956;2023-02-21T06:24:06;101085.06;;;8.26;100.00
5574;BME280;2563;52.242;7.956;2023-02-21T06:26:31;101091.03;;;8.25;100.00
5574;BME280;2563;52.242;7.956;2023-02-21T06:28:57;101098.72;;;8.25;100.00
5574;BME280;2563;52.242;7.956;2023-02-21T06:31:23;101094.44;;;8.26;100.00
5574;BME280;2563;52.242;7.956;2023-02-21T06:33:49;101092.75;;;8.23;100.00
5574;BME280;2563;52.242;7.956;2023-02-21T06:36:17;101090.19;;;8.23;100.00
5574;BME280;2563;52.242;7.956;2023-02-21T06:38:48;101095.31;;;8.23;100.00
5574;BME280;2563;52.242;7.956;2023-02-21T06:41:17;101097.03;;;8.24;100.00
5574;BME280;2563;52.242;7.956;2023-02-21T06:43:42;101097.88;;;8.23;100.00
5574;BME280;2563;52.242;7.956;2023-02-21T06:46:08;101085.06;;;8.23;100.00
5574;BME280;2563;52.242;7.956;2023-02-21T06:48:33;101091.06;;;8.22;100.00
5574;BME280;2563;52.242;7.956;2023-02-21T06:50:58;101100.44;;;8.23;100.00
5574;BME280;2563;52.242;7.956;2023-02-21T06:53:24;101091.91;;;8.23;100.00
5574;BME280;2563;52.242;7.956;2023-02-21T06:55:50;101097.03;;;8.23;100.00
5574;BME280;2563;52.242;7.956;2023-02-21T06:58:15;101103.88;;;8.22;100.00
5574;BME280;2563;52.242;7.956;2023-02-21T07:00:41;101103.88;;;8.21;100.00
5574;BME280;2563;52.242;7.956;2023-02-21T07:03:06;101101.31;;;8.21;100.00
5574;BME280;2563;52.242;7.956;2023-02-21T07:05:31;101105.59;;;8.20;100.00
5574;BME280;2563;52.242;7.956;2023-02-21T07:08:02;101094.50;;;8.20;100.00
5574;BME280;2563;52.242;7.956;2023-02-21T07:10:28;101085.09;;;8.19;100.00
5574;BME280;2563;52.242;7.956;2023-02-21T07:12:54;101087.66;;;8.20;100.00
5574;BME280;2563;52.242;7.956;2023-02-21T07:15:19;101088.53;;;8.19;100.00
5574;BME280;2563;52.242;7.956;2023-02-21T07:17:45;101090.22;;;8.20;100.00
5574;BME280;2563;52.242;7.956;2023-02-21T07:20:10;101088.53;;;8.19;100.00
5574;BME280;2563;52.242;7.956;2023-02-21T07:22:35;101091.09;;;8.19;100.00
5574;BME280;2563;52.242;7.956;2023-02-21T07:25:01;101097.06;;;8.18;100.00
5574;BME280;2563;52.242;7.956;2023-02-21T07:27:26;101102.19;;;8.18;100.00
5574;BME280;2563;52.242;7.956;2023-02-21T07:29:52;101103.91;;;8.19;100.00
5574;BME280;2563;52.242;7.956;2023-02-21T07:32:17;101113.28;;;8.20;100.00
5574;BME280;2563;52.242;7.956;2023-02-21T07:34:43;101116.69;;;8.21;100.00
5574;BME280;2563;52.242;7.956;2023-02-21T07:37:09;101120.97;;;8.23;100.00
5574;BME280;2563;52.242;7.956;2023-02-21T07:39:35;101122.69;;;8.24;100.00
5574;BME280;2563;52.242;7.956;2023-02-21T07:42:02;101125.22;;;8.26;100.00
5574;BME280;2563;52.242;7.956;2023-02-21T07:44:28;101132.06;;;8.25;100.00
5574;BME280;2563;52.242;7.956;2023-02-21T07:46:55;101132.06;;;8.27;100.00
5574;BME280;2563;52.242;7.956;2023-02-21T07:49:21;101136.34;;;8.26;100.00
5574;BME280;2563;52.242;7.956;2023-02-21T07:51:46;101127.78;;;8.27;100.00
5574;BME280;2563;52.242;7.956;2023-02-21T07:54:11;101132.91;;;8.27;100.00
5574;BME280;2563;52.242;7.956;2023-02-21T07:56:42;101130.34;;;8.27;100.00
5574;BME280;2563;52.242;7.956;2023-02-21T07:59:08;101132.91;;;8.27;100.00
5574;BME280;2563;52.242;7.956;2023-02-21T08:01:33;101138.91;;;8.28;100.00
5574;BME280;2563;52.242;7.956;2023-02-21T08:03:58;101144.03;;;8.31;100.00
5574;BME280;2563;52.242;7.956;2023-02-21T08:06:24;101141.44;;;8.32;100.00
5574;BME280;2563;52.242;7.956;2023-02-21T08:08:49;101143.13;;;8.37;100.00
5574;BME280;2563;52.242;7.956;2023-02-21T08:11:14;101154.25;;;8.37;100.00
5574;BME280;2563;52.242;7.956;2023-02-21T08:13:40;101153.41;;;8.37;100.00
5574;BME280;2563;52.242;7.956;2023-02-21T08:16:05;101153.41;;;8.37;100.00
5574;BME280;2563;52.242;7.956;2023-02-21T08:18:30;101151.69;;;8.39;100.00
5574;BME280;2563;52.242;7.956;2023-02-21T08:20:56;101145.72;;;8.43;100.00
5574;BME280;2563;52.242;7.956;2023-02-21T08:23:22;101138.84;;;8.46;100.00
5574;BME280;2563;52.242;7.956;2023-02-21T08:25:48;101133.69;;;8.48;100.00
5574;BME280;2563;52.242;7.956;2023-02-21T08:28:16;101138.78;;;8.56;100.00
5574;BME280;2563;52.242;7.956;2023-02-21T08:30:41;101140.47;;;8.60;100.00
5574;BME280;2563;52.242;7.956;2023-02-21T08:33:07;101134.44;;;8.64;100.00
5574;BME280;2563;52.242;7.956;2023-02-21T08:35:33;101131.03;;;8.62;100.00
5574;BME280;2563;52.242;7.956;2023-02-21T08:37:58;101127.63;;;8.64;100.00
5574;BME280;2563;52.242;7.956;2023-02-21T08:40:28;101124.16;;;8.65;100.00
5574;BME280;2563;52.242;7.956;2023-02-21T08:42:55;101120.75;;;8.63;100.00
5574;BME280;2563;52.242;7.956;2023-02-21T08:45:22;101107.13;;;8.58;100.00
5574;BME280;2563;52.242;7.956;2023-02-21T08:47:49;101119.09;;;8.56;100.00
5574;BME280;2563;52.242;7.956;2023-02-21T08:50:17;101113.13;;;8.57;100.00
5574;BME280;2563;52.242;7.956;2023-02-21T08:52:45;101109.69;;;8.57;100.00
5574;BME280;2563;52.242;7.956;2023-02-21T08:55:10;101103.66;;;8.59;100.00
5574;BME280;2563;52.242;7.956;2023-02-21T08:57:36;101100.25;;;8.60;100.00
5574;BME280;2563;52.242;7.956;2023-02-21T09:00:03;101102.84;;;8.57;100.00
5574;BME280;2563;52.242;7.956;2023-02-21T09:02:30;101101.97;;;8.57;100.00
5574;BME280;2563;52.242;7.956;2023-02-21T09:04:57;101100.28;;;8.57;100.00
5574;BME280;2563;52.242;7.956;2023-02-21T09:07:23;101113.13;;;8.57;100.00
5574;BME280;2563;52.242;7.956;2023-02-21T09:09:49;101098.53;;;8.59;100.00
5574;BME280;2563;52.242;7.956;2023-02-21T09:12:15;101096.84;;;8.58;100.00
5574;BME280;2563;52.242;7.956;2023-02-21T09:14:42;101093.47;;;8.53;100.00
5574;BME280;2563;52.242;7.956;2023-02-21T09:17:10;101104.56;;;8.57;100.00
5574;BME280;2563;52.242;7.956;2023-02-21T09:19:36;101099.41;;;8.60;100.00
5574;BME280;2563;52.242;7.956;2023-02-21T09:22:01;101097.66;;;8.63;100.00
5574;BME280;2563;52.242;7.956;2023-02-21T09:24:29;101112.22;;;8.61;100.00
5574;BME280;2563;52.242;7.956;2023-02-21T09:26:56;101107.09;;;8.61;100.00
5574;BME280;2563;52.242;7.956;2023-02-21T09:29:29;101105.41;;;8.60;100.00
5574;BME280;2563;52.242;7.956;2023-02-21T09:31:55;101110.47;;;8.66;100.00
5574;BME280;2563;52.242;7.956;2023-02-21T09:34:21;101104.50;;;8.66;100.00
5574;BME280;2563;52.242;7.956;2023-02-21T09:36:47;101100.19;;;8.68;100.00
5574;BME280;2563;52.242;7.956;2023-02-21T09:39:13;101106.19;;;8.68;100.00
5574;BME280;2563;52.242;7.956;2023-02-21T09:41:39;101107.00;;;8.73;100.00
5574;BME280;2563;52.242;7.956;2023-02-21T09:44:13;101112.13;;;8.73;100.00
5574;BME280;2563;52.242;7.956;2023-02-21T09:46:45;101103.56;;;8.73;100.00
5574;BME280;2563;52.242;7.956;2023-02-21T09:49:24;101104.47;;;8.69;100.00
5574;BME280;2563;52.242;7.956;2023-02-21T09:51:51;101095.03;;;8.71;100.00
5574;BME280;2563;52.242;7.956;2023-02-21T09:54:39;101094.16;;;8.73;100.00
5574;BME280;2563;52.242;7.956;2023-02-21T09:57:13;101089.91;;;8.74;100.00
5574;BME280;2563;52.242;7.956;2023-02-21T09:59:38;101086.50;;;8.70;100.00
5574;BME280;2563;52.242;7.956;2023-02-21T10:07:58;101077.00;;;8.79;100.00
5574;BME280;2563;52.242;7.956;2023-02-21T10:10:46;101070.09;;;8.88;100.00
5574;BME280;2563;52.242;7.956;2023-02-21T10:18:43;101045.31;;;8.83;100.00
5574;BME280;2563;52.242;7.956;2023-02-21T10:21:34;101049.53;;;8.91;100.00
5574;BME280;2563;52.242;7.956;2023-02-21T10:24:02;101036.66;;;8.94;100.00
5574;BME280;2563;52.242;7.956;2023-02-21T10:26:37;101028.16;;;8.88;100.00
5574;BME280;2563;52.242;7.956;2023-02-21T10:29:16;101024.69;;;8.90;100.00
5574;BME280;2563;52.242;7.956;2023-02-21T10:31:45;101010.13;;;8.92;100.00
5574;BME280;2563;52.242;7.956;2023-02-21T10:34:28;101022.97;;;8.94;100.00
5574;BME280;2563;52.242;7.956;2023-02-21T10:36:55;101016.06;;;8.99;100.00
5574;BME280;2563;52.242;7.956;2023-02-21T10:39:31;101022.91;;;9.00;100.00
5574;BME280;2563;52.242;7.956;2023-02-21T10:41:59;101020.41;;;8.96;100.00
5574;BME280;2563;52.242;7.956;2023-02-21T10:44:28;101015.22;;;8.97;100.00
5574;BME280;2563;52.242;7.956;2023-02-21T10:47:08;101016.16;;;8.90;100.00
5574;BME280;2563;52.242;7.956;2023-02-21T10:49:46;101012.66;;;8.99;100.00
5574;BME280;2563;52.242;7.956;2023-02-21T10:52:16;101026.34;;;8.99;100.00
5574;BME280;2563;52.242;7.956;2023-02-21T10:57:23;101014.38;;;8.98;100.00
5574;BME280;2563;52.242;7.956;2023-02-21T10:59:49;101009.25;;;8.95;100.00
5574;BME280;2563;52.242;7.956;2023-02-21T11:02:34;101015.28;;;8.94;100.00
5574;BME280;2563;52.242;7.956;2023-02-21T11:07:35;101016.03;;;9.05;100.00
5574;BME280;2563;52.242;7.956;2023-02-21T11:10:01;101010.88;;;9.02;100.00
5574;BME280;2563;52.242;7.956;2023-02-21T11:12:28;101019.50;;;8.98;100.00
5574;BME280;2563;52.242;7.956;2023-02-21T11:17:23;101017.75;;;9.00;100.00
5574;BME280;2563;52.242;7.956;2023-02-21T11:19:52;101024.66;;;8.95;100.00
5574;BME280;2563;52.242;7.956;2023-02-21T11:22:39;101022.16;;;8.89;100.00
5574;BME280;2563;52.242;7.956;2023-02-21T11:27:58;101029.88;;;8.89;100.00
5574;BME280;2563;52.242;7.956;2023-02-21T11:30:25;101033.25;;;8.94;100.00
5574;BME280;2563;52.242;7.956;2023-02-21T11:32:53;101031.56;;;8.90;100.00
5574;BME280;2563;52.242;7.956;2023-02-21T11:37:48;101037.50;;;8.95;100.00
5574;BME280;2563;52.242;7.956;2023-02-21T11:40:24;101041.03;;;8.86;100.00
5574;BME280;2563;52.242;7.956;2023-02-21T11:43:15;101034.97;;;8.92;100.00
5574;BME280;2563;52.242;7.956;2023-02-21T11:46:07;101039.22;;;8.94;100.00
5574;BME280;2563;52.242;7.956;2023-02-21T11:48:41;101033.25;;;8.94;100.00
5574;BME280;2563;52.242;7.956;2023-02-21T11:51:17;101027.19;;;9.00;100.00
5574;BME280;2563;52.242;7.956;2023-02-21T11:53:47;101022.03;;;9.00;100.00
5574;BME280;2563;52.242;7.956;2023-02-21T12:01:35;101005.75;;;9.05;100.00
5574;BME280;2563;52.242;7.956;2023-02-21T12:06:37;100994.56;;;9.09;100.00
5574;BME280;2563;52.242;7.956;2023-02-21T12:15:02;100985.91;;;9.16;100.00
5574;BME280;2563;52.242;7.956;2023-02-21T12:23:21;100973.69;;;9.37;100.00
5574;BME280;2563;52.242;7.956;2023-02-21T12:26:13;100963.38;;;9.40;100.00
5574;BME280;2563;52.242;7.956;2023-02-21T12:31:37;100959.13;;;9.39;100.00
5574;BME280;2563;52.242;7.956;2023-02-21T12:42:13;100974.38;;;9.51;100.00
5574;BME280;2563;52.242;7.956;2023-02-21T12:47:54;100974.44;;;9.45;100.00
5574;BME280;2563;52.242;7.956;2023-02-21T12:50:27;100977.78;;;9.50;100.00
5574;BME280;2563;52.242;7.956;2023-02-21T12:58:21;100976.78;;;9.62;100.00
5574;BME280;2563;52.242;7.956;2023-02-21T13:01:07;100985.44;;;9.56;100.00
5574;BME280;2563;52.242;7.956;2023-02-21T13:06:27;101006.19;;;9.41;100.00
5574;BME280;2563;52.242;7.956;2023-02-21T13:14:39;101040.34;;;9.49;100.00
5574;BME280;2563;52.242;7.956;2023-02-21T13:17:11;101050.72;;;9.42;100.00
5574;BME280;2563;52.242;7.956;2023-02-21T13:19:43;101071.47;;;9.22;100.00
5574;BME280;2563;52.242;7.956;2023-02-21T13:28:34;101074.19;;;9.06;100.00
5574;BME280;2563;52.242;7.956;2023-02-21T13:31:06;101075.88;;;9.07;100.00
5574;BME280;2563;52.242;7.956;2023-02-21T13:33:50;101075.88;;;9.10;100.00
5574;BME280;2563;52.242;7.956;2023-02-21T13:39:31;101082.78;;;9.05;100.00
5574;BME280;2563;52.242;7.956;2023-02-21T13:41:54;101098.22;;;8.99;100.00
5574;BME280;2563;52.242;7.956;2023-02-21T13:44:30;101099.91;;;9.03;100.00
5574;BME280;2563;52.242;7.956;2023-02-21T13:49:57;101111.09;;;8.93;100.00
5574;BME280;2563;52.242;7.956;2023-02-21T13:55:27;101116.31;;;8.88;100.00
5574;BME280;2563;52.242;7.956;2023-02-21T14:05:23;101130.09;;;8.75;100.00
5574;BME280;2563;52.242;7.956;2023-02-21T14:08:01;101120.66;;;8.77;100.00
5574;BME280;2563;52.242;7.956;2023-02-21T14:10:38;101125.00;;;8.70;100.00
5574;BME280;2563;52.242;7.956;2023-02-21T14:15:55;101127.63;;;8.61;100.00
5574;BME280;2563;52.242;7.956;2023-02-21T14:18:28;101136.22;;;8.57;100.00
5574;BME280;2563;52.242;7.956;2023-02-21T14:20:55;101143.09;;;8.50;100.00
5574;BME280;2563;52.242;7.956;2023-02-21T14:23:30;101143.13;;;8.46;100.00
5574;BME280;2563;52.242;7.956;2023-02-21T14:25:59;101143.97;;;8.40;100.00
5574;BME280;2563;52.242;7.956;2023-02-21T14:28:48;101140.56;;;8.46;100.00
5574;BME280;2563;52.242;7.956;2023-02-21T14:31:14;101142.25;;;8.47;100.00
5574;BME280;2563;52.242;7.956;2023-02-21T14:33:39;101137.13;;;8.42;100.00
5574;BME280;2563;52.242;7.956;2023-02-21T14:36:07;101141.41;;;8.45;100.00
5574;BME280;2563;52.242;7.956;2023-02-21T14:38:41;101132.84;;;8.44;100.00
5574;BME280;2563;52.242;7.956;2023-02-21T14:41:10;101137.16;;;8.45;100.00
5574;BME280;2563;52.242;7.956;2023-02-21T14:44:02;101132.88;;;8.40;100.00
5574;BME280;2563;52.242;7.956;2023-02-21T14:54:49;101124.31;;;8.44;100.00
5574;BME280;2563;52.242;7.956;2023-02-21T15:05:35;101117.50;;;8.43;100.00
5574;BME280;2563;52.242;7.956;2023-02-21T15:08:23;101104.63;;;8.44;100.00
5574;BME280;2563;52.242;7.956;2023-02-21T15:10:51;101110.59;;;8.45;100.00
5574;BME280;2563;52.242;7.956;2023-02-21T15:13:26;101104.66;;;8.41;100.00
5574;BME280;2563;52.242;7.956;2023-02-21T15:16:04;101108.91;;;8.44;100.00
5574;BME280;2563;52.242;7.956;2023-02-21T15:18:41;101102.91;;;8.45;100.00
5574;BME280;2563;52.242;7.956;2023-02-21T15:21:20;101103.72;;;8.53;100.00
5574;BME280;2563;52.242;7.956;2023-02-21T15:23:49;101108.84;;;8.56;100.00
5574;BME280;2563;52.242;7.956;2023-02-21T15:26:29;101105.44;;;8.56;100.00
5574;BME280;2563;52.242;7.956;2023-02-21T15:29:11;101101.97;;;8.58;100.00
5574;BME280;2563;52.242;7.956;2023-02-21T15:31:43;101107.16;;;8.55;100.00
5574;BME280;2563;52.242;7.956;2023-02-21T15:34:21;101102.00;;;8.55;100.00
5574;BME280;2563;52.242;7.956;2023-02-21T15:37:20;101096.00;;;8.58;100.00
5574;BME280;2563;52.242;7.956;2023-02-21T15:39:52;101097.72;;;8.57;100.00
5574;BME280;2563;52.242;7.956;2023-02-21T15:42:19;101091.75;;;8.52;100.00
5574;BME280;2563;52.242;7.956;2023-02-21T15:44:57;101095.19;;;8.51;100.00
5574;BME280;2563;52.242;7.956;2023-02-21T15:47:26;101095.19;;;8.51;100.00
5574;BME280;2563;52.242;7.956;2023-02-21T16:03:59;101081.53;;;8.46;100.00
5574;BME280;2563;52.242;7.956;2023-02-21T16:11:48;101081.56;;;8.43;100.00
5574;BME280;2563;52.242;7.956;2023-02-21T16:19:33;101055.91;;;8.40;100.00
5574;BME280;2563;52.242;7.956;2023-02-21T16:24:42;101050.78;;;8.37;100.00